Paris, France

9:38 AM CET on October 26, 2014 (GMT +0100)
I75003PA1 | Change Station
CLOSE
Current Station
Personal Weather Station
Location: Paris-centre, Paris
Elevation: 161 ft
Nearby Weather Stations

Elev 161 ft 48.85 °N, 2.34 °E | Updated 26 seconds ago

Fog
Fog
58.3 °F
Feels Like 58.3 °F
N
2.0
Wind Variable Wind from SSE
Gusts 5.0 mph

Today
High -- | Low -- °F
--% Chance of Precip.
Yesterday
High -- | Low -- °F
Precip. -- in
7:27 AM 5:40 PM
Waxing Crescent, 6% visible
Pressure 30.27 in
Visibility 0.4 miles
Clouds Mostly Cloudy 200 ft
Mostly Cloudy 300 ft
Dew Point 55 °F
Humidity 88%
Rainfall -999.00 in
Snow Depth Not available.
UV 1 out of 12
Pollen Not available.
Air Quality Not available.
Flu Activity Not available.
METAR LFPO 260830Z 18002KT 0700 R02/1000U R26/1200N R08/P2000 R24/P2000 R06/P2000 FG BKN002 BKN003 13/12 Q1025 NOSIG

More Conditions Fewer Conditions

Pressure 30.27 in
Visibility 0.4 miles
Clouds Mostly Cloudy 200 ft
Mostly Cloudy 300 ft
Dew Point 55 °F
Humidity 88%
Rainfall -999.00 in
Snow Depth Not available.
UV 1 out of 12
Pollen Not available.
Air Quality Not available.
Flu Activity Not available.
METAR LFPO 260830Z 18002KT 0700 R02/1000U R26/1200N R08/P2000 R24/P2000 R06/P2000 FG BKN002 BKN003 13/12 Q1025 NOSIG

More Conditions Fewer Conditions

10-Day Weather Forecast

Almanac

Astronomy

Oct. 26, 2014 Rise Set
Actual Time 7:27 AM CET 5:40 PM CET
Civil Twilight 6:55 AM CET 6:13 PM CET
Nautical Twilight 6:18 AM CET 6:50 PM CET
Astronomical Twilight 5:41 AM CET 7:26 PM CET
Moon 9:59 AM CET 7:30 PM CET
Length of Visible Light 11h 18m
Length of Day
10h 13m
Tomorrow will be 3m 21s shorter.
Waxing Crescent, 6% of the Moon is Illuminated
Today
Waxing Crescent
Oct 30
First Quarter
Nov 6
Full
Nov 14
Last Quarter
Nov 22
New

Yesterday's Extremes

Country Highs Country Lows

Community

WunderPhotos

Upload Photos

1,765,127 photos uploaded!

Nearby

Snow Depth

Not available.

Earthquake Activity

City Distance Mag. Time & Date
No recent earthquake activity has been reported nearby.
Minimum magnitude displayed is 2.5.

Coastal Water Temperatures

Place Temperature
No Stations Reporting

Nearby Weather Stations